WXM80 ListenWXM80 Stop

You find our weather info also at:

UK Metoffice

WeatherCloud

Weather Underground

Northeastern Weather Network

AWEKAS

Citizen Weather Observer Program (CWOP)

HAMweather, WeatherForYou, PWS Weather


Weather Underground History page Text

Daily Summary for August 21, 2018 Units:  Both    English   Metric
« Previous Day
Next Day »
Daily Weekly Monthly Yearly Custom
  Current: High: Low: Average:
Temperature: 79.4 °F /  26.3 °C TemperatureF °F /  -17.8 °C 62.6 °F /  17 °C 68.9 °F /  20.5 °C
Dew Point: 70 °F /  21.1 °C DewpointF °F /  -17.8 °C 60.5 °F /  15.8 °C 64.2 °F /  17.9 °C
Humidity: 73 % Humidity % 70 % 85 %
Wind Speed: 0.7 mph /  1.1 km/h WindSpeedMPH mph /  0 km/h - 0.3 mph /  0.5 km/h
Wind Gust: 2.3 mph /  3.7 km/h WindSpeedGustMPH mph /  0 km/h - -
Wind:ENE - - ENE
Pressure: 30.01 in /  1016.1 hPa PressureIn in /  0 hPa 30.01 in /  1016.1 hPa -
Precipitation: 0 in /  0 mm      
Historical Graphs
 
 
Tabular Data for August 21, 2018
Time Temperature Dew Point Pressure Wind Wind Speed Wind Gust Humidity Rainfall Rate (Hourly)
TemperatureF °F /  -17.8 °C DewpointF °F /  -17.8 °C PressureIn in /  0 hPa Calm     Humidity % HourlyPrecipIn in /  0 mm
00:04 66.3 °F /  19.1 °C 63.9 °F /  17.7 °C 30.12 in /  1019.9 hPa Calm     92 % 0 in /  0 mm
00:09 66.3 °F /  19.1 °C 63.9 °F /  17.7 °C 30.12 in /  1019.9 hPa SE 0.3 mph /  0.5 km/h 3.5 mph /  5.6 km/h 92 % 0 in /  0 mm
00:14 66.4 °F /  19.1 °C 64 °F /  17.8 °C 30.13 in /  1020.2 hPa Calm   1.2 mph /  1.9 km/h 92 % 0 in /  0 mm
00:19 66.4 °F /  19.1 °C 64 °F /  17.8 °C 30.13 in /  1020.2 hPa Calm     92 % 0 in /  0 mm
00:24 66.5 °F /  19.2 °C 64.1 °F /  17.8 °C 30.13 in /  1020.2 hPa Calm     92 % 0 in /  0 mm
00:29 66.5 °F /  19.2 °C 63.8 °F /  17.7 °C 30.13 in /  1020.2 hPa Calm     91 % 0 in /  0 mm
00:34 66.6 °F /  19.2 °C 63.9 °F /  17.7 °C 30.13 in /  1020.2 hPa Calm     91 % 0 in /  0 mm
00:39 66.7 °F /  19.3 °C 64 °F /  17.8 °C 30.12 in /  1019.9 hPa Calm     91 % 0 in /  0 mm
00:44 66.7 °F /  19.3 °C 64 °F /  17.8 °C 30.13 in /  1020.2 hPa Calm     91 % 0 in /  0 mm
00:49 66.8 °F /  19.3 °C 63.8 °F /  17.7 °C 30.13 in /  1020.2 hPa Calm     90 % 0 in /  0 mm
00:54 66.8 °F /  19.3 °C 63.8 °F /  17.7 °C 30.13 in /  1020.2 hPa Calm     90 % 0 in /  0 mm
00:59 66.8 °F /  19.3 °C 63.8 °F /  17.7 °C 30.13 in /  1020.2 hPa Calm     90 % 0 in /  0 mm
01:04 66.9 °F /  19.4 °C 63.9 °F /  17.7 °C 30.12 in /  1019.9 hPa Calm     90 % 0 in /  0 mm
01:09 66.9 °F /  19.4 °C 63.9 °F /  17.7 °C 30.12 in /  1019.9 hPa Calm     90 % 0 in /  0 mm
01:14 66.9 °F /  19.4 °C 63.9 °F /  17.7 °C 30.12 in /  1019.9 hPa Calm     90 % 0 in /  0 mm
01:19 66.9 °F /  19.4 °C 63.9 °F /  17.7 °C 30.12 in /  1019.9 hPa Calm     90 % 0 in /  0 mm
01:24 66.9 °F /  19.4 °C 63.9 °F /  17.7 °C 30.12 in /  1019.9 hPa Calm     90 % 0 in /  0 mm
01:29 66.9 °F /  19.4 °C 63.9 °F /  17.7 °C 30.12 in /  1019.9 hPa Calm     90 % 0 in /  0 mm
01:34 66.8 °F /  19.3 °C 63.8 °F /  17.7 °C 30.12 in /  1019.9 hPa Calm     90 % 0 in /  0 mm
01:39 66.8 °F /  19.3 °C 63.8 °F /  17.7 °C 30.12 in /  1019.9 hPa Calm     90 % 0 in /  0 mm
01:44 66.8 °F /  19.3 °C 63.8 °F /  17.7 °C 30.12 in /  1019.9 hPa Calm     90 % 0 in /  0 mm
01:49 66.8 °F /  19.3 °C 63.8 °F /  17.7 °C 30.12 in /  1019.9 hPa Calm     90 % 0 in /  0 mm
01:54 66.7 °F /  19.3 °C 63.7 °F /  17.6 °C 30.12 in /  1019.9 hPa SE 0.2 mph /  0.3 km/h 3.5 mph /  5.6 km/h 90 % 0 in /  0 mm
01:59 66.7 °F /  19.3 °C 63.4 °F /  17.4 °C 30.11 in /  1019.5 hPa Calm     89 % 0 in /  0 mm
02:04 66.7 °F /  19.3 °C 63.4 °F /  17.4 °C 30.11 in /  1019.5 hPa Calm     89 % 0 in /  0 mm
02:09 66.6 °F /  19.2 °C 63.3 °F /  17.4 °C 30.11 in /  1019.5 hPa Calm     89 % 0 in /  0 mm
02:14 66.6 °F /  19.2 °C 63.3 °F /  17.4 °C 30.11 in /  1019.5 hPa Calm     89 % 0 in /  0 mm
02:19 66.5 °F /  19.2 °C 63.2 °F /  17.3 °C 30.11 in /  1019.5 hPa Calm     89 % 0 in /  0 mm
02:24 66.4 °F /  19.1 °C 63.1 °F /  17.3 °C 30.11 in /  1019.5 hPa Calm     89 % 0 in /  0 mm
02:29 66.3 °F /  19.1 °C 63 °F /  17.2 °C 30.11 in /  1019.5 hPa Calm     89 % 0 in /  0 mm
02:34 66.2 °F /  19 °C 62.9 °F /  17.2 °C 30.11 in /  1019.5 hPa Calm     89 % 0 in /  0 mm
02:39 66.1 °F /  18.9 °C 62.8 °F /  17.1 °C 30.11 in /  1019.5 hPa Calm     89 % 0 in /  0 mm
02:44 66 °F /  18.9 °C 63 °F /  17.2 °C 30.11 in /  1019.5 hPa Calm     90 % 0 in /  0 mm
02:49 65.9 °F /  18.8 °C 62.6 °F /  17 °C 30.11 in /  1019.5 hPa Calm     89 % 0 in /  0 mm
02:54 65.8 °F /  18.8 °C 62.5 °F /  16.9 °C 30.11 in /  1019.5 hPa Calm     89 % 0 in /  0 mm
02:59 65.7 °F /  18.7 °C 62.4 °F /  16.9 °C 30.11 in /  1019.5 hPa Calm     89 % 0 in /  0 mm
03:04 65.6 °F /  18.7 °C 62.6 °F /  17 °C 30.11 in /  1019.5 hPa Calm     90 % 0 in /  0 mm
03:09 65.5 °F /  18.6 °C 62.5 °F /  16.9 °C 30.10 in /  1019.2 hPa Calm     90 % 0 in /  0 mm
03:14 65.4 °F /  18.6 °C 62.4 °F /  16.9 °C 30.10 in /  1019.2 hPa Calm     90 % 0 in /  0 mm
03:19 65.2 °F /  18.4 °C 62.2 °F /  16.8 °C 30.10 in /  1019.2 hPa Calm     90 % 0 in /  0 mm
03:24 65.2 °F /  18.4 °C 62.2 °F /  16.8 °C 30.09 in /  1018.8 hPa Calm     90 % 0 in /  0 mm
03:29 65 °F /  18.3 °C 62 °F /  16.7 °C 30.09 in /  1018.8 hPa Calm     90 % 0 in /  0 mm
03:34 64.9 °F /  18.3 °C 61.9 °F /  16.6 °C 30.09 in /  1018.8 hPa Calm     90 % 0 in /  0 mm
03:39 64.8 °F /  18.2 °C 61.8 °F /  16.6 °C 30.09 in /  1018.8 hPa Calm     90 % 0 in /  0 mm
03:44 64.7 °F /  18.2 °C 61.7 °F /  16.5 °C 30.09 in /  1018.8 hPa Calm     90 % 0 in /  0 mm
03:49 64.5 °F /  18.1 °C 61.5 °F /  16.4 °C 30.09 in /  1018.8 hPa Calm     90 % 0 in /  0 mm
03:54 64.4 °F /  18 °C 61.4 °F /  16.3 °C 30.09 in /  1018.8 hPa Calm     90 % 0 in /  0 mm
03:59 64.3 °F /  17.9 °C 61.6 °F /  16.4 °C 30.09 in /  1018.8 hPa Calm     91 % 0 in /  0 mm
04:04 64.2 °F /  17.9 °C 61.5 °F /  16.4 °C 30.09 in /  1018.8 hPa Calm     91 % 0 in /  0 mm
04:09 64.1 °F /  17.8 °C 61.4 °F /  16.3 °C 30.09 in /  1018.8 hPa Calm     91 % 0 in /  0 mm
04:14 64 °F /  17.8 °C 61.3 °F /  16.3 °C 30.08 in /  1018.5 hPa Calm     91 % 0 in /  0 mm
04:19 63.9 °F /  17.7 °C 61.2 °F /  16.2 °C 30.08 in /  1018.5 hPa Calm     91 % 0 in /  0 mm
04:24 63.8 °F /  17.7 °C 61.1 °F /  16.2 °C 30.08 in /  1018.5 hPa Calm     91 % 0 in /  0 mm
04:29 63.8 °F /  17.7 °C 61.1 °F /  16.2 °C 30.08 in /  1018.5 hPa Calm     91 % 0 in /  0 mm
04:34 63.7 °F /  17.6 °C 61 °F /  16.1 °C 30.09 in /  1018.8 hPa Calm     91 % 0 in /  0 mm
04:39 63.6 °F /  17.6 °C 60.9 °F /  16.1 °C 30.09 in /  1018.8 hPa Calm     91 % 0 in /  0 mm
04:44 63.5 °F /  17.5 °C 60.8 °F /  16 °C 30.09 in /  1018.8 hPa Calm     91 % 0 in /  0 mm
04:49 63.5 °F /  17.5 °C 60.8 °F /  16 °C 30.09 in /  1018.8 hPa Calm     91 % 0 in /  0 mm
04:54 63.4 °F /  17.4 °C 60.7 °F /  15.9 °C 30.09 in /  1018.8 hPa Calm     91 % 0 in /  0 mm
04:59 63.4 °F /  17.4 °C 61 °F /  16.1 °C 30.09 in /  1018.8 hPa Calm     92 % 0 in /  0 mm
05:04 63.3 °F /  17.4 °C 60.9 °F /  16.1 °C 30.09 in /  1018.8 hPa Calm     92 % 0 in /  0 mm
05:09 63.3 °F /  17.4 °C 60.9 °F /  16.1 °C 30.09 in /  1018.8 hPa Calm     92 % 0 in /  0 mm
05:14 63.2 °F /  17.3 °C 60.8 °F /  16 °C 30.09 in /  1018.8 hPa Calm     92 % 0 in /  0 mm
05:19 63.1 °F /  17.3 °C 60.7 °F /  15.9 °C 30.09 in /  1018.8 hPa Calm     92 % 0 in /  0 mm
05:24 63.1 °F /  17.3 °C 60.7 °F /  15.9 °C 30.09 in /  1018.8 hPa Calm     92 % 0 in /  0 mm
05:29 63 °F /  17.2 °C 60.6 °F /  15.9 °C 30.09 in /  1018.8 hPa Calm     92 % 0 in /  0 mm
05:34 63 °F /  17.2 °C 60.6 °F /  15.9 °C 30.09 in /  1018.8 hPa Calm     92 % 0 in /  0 mm
05:39 63 °F /  17.2 °C 60.6 °F /  15.9 °C 30.09 in /  1018.8 hPa Calm     92 % 0 in /  0 mm
05:44 62.9 °F /  17.2 °C 60.8 °F /  16 °C 30.09 in /  1018.8 hPa Calm     93 % 0 in /  0 mm
05:49 62.9 °F /  17.2 °C 60.8 °F /  16 °C 30.09 in /  1018.8 hPa Calm     93 % 0 in /  0 mm
05:54 62.9 °F /  17.2 °C 60.8 °F /  16 °C 30.09 in /  1018.8 hPa Calm     93 % 0 in /  0 mm
05:59 62.8 °F /  17.1 °C 60.7 °F /  15.9 °C 30.09 in /  1018.8 hPa Calm     93 % 0 in /  0 mm
06:04 62.8 °F /  17.1 °C 60.7 °F /  15.9 °C 30.09 in /  1018.8 hPa Calm     93 % 0 in /  0 mm
06:09 62.7 °F /  17.1 °C 60.6 °F /  15.9 °C 30.09 in /  1018.8 hPa Calm     93 % 0 in /  0 mm
06:14 62.7 °F /  17.1 °C 60.6 °F /  15.9 °C 30.09 in /  1018.8 hPa Calm     93 % 0 in /  0 mm
06:19 62.7 °F /  17.1 °C 60.6 °F /  15.9 °C 30.09 in /  1018.8 hPa Calm     93 % 0 in /  0 mm
06:24 62.7 °F /  17.1 °C 60.6 °F /  15.9 °C 30.09 in /  1018.8 hPa Calm     93 % 0 in /  0 mm
06:29 62.6 °F /  17 °C 60.5 °F /  15.8 °C 30.09 in /  1018.8 hPa Calm     93 % 0 in /  0 mm
06:34 62.6 °F /  17 °C 60.5 °F /  15.8 °C 30.09 in /  1018.8 hPa Calm     93 % 0 in /  0 mm
06:39 62.6 °F /  17 °C 60.5 °F /  15.8 °C 30.09 in /  1018.8 hPa Calm     93 % 0 in /  0 mm
06:44 62.7 °F /  17.1 °C 60.9 °F /  16.1 °C 30.09 in /  1018.8 hPa Calm     94 % 0 in /  0 mm
06:49 62.7 °F /  17.1 °C 60.9 °F /  16.1 °C 30.10 in /  1019.2 hPa Calm     94 % 0 in /  0 mm
06:54 62.8 °F /  17.1 °C 61 °F /  16.1 °C 30.10 in /  1019.2 hPa Calm     94 % 0 in /  0 mm
06:59 63 °F /  17.2 °C 61.2 °F /  16.2 °C 30.10 in /  1019.2 hPa Calm     94 % 0 in /  0 mm
07:04 63.1 °F /  17.3 °C 61.6 °F /  16.4 °C 30.10 in /  1019.2 hPa Calm     95 % 0 in /  0 mm
07:09 63.3 °F /  17.4 °C 61.8 °F /  16.6 °C 30.10 in /  1019.2 hPa Calm     95 % 0 in /  0 mm
07:14 63.8 °F /  17.7 °C 62.6 °F /  17 °C 30.09 in /  1018.8 hPa Calm     96 % 0 in /  0 mm
07:19 64.3 °F /  17.9 °C 63.1 °F /  17.3 °C 30.09 in /  1018.8 hPa Calm     96 % 0 in /  0 mm
07:24 64.7 °F /  18.2 °C 63.5 °F /  17.5 °C 30.09 in /  1018.8 hPa East 0.5 mph /  0.8 km/h 1 mph /  1.6 km/h 96 % 0 in /  0 mm
07:29 65 °F /  18.3 °C 63.8 °F /  17.7 °C 30.09 in /  1018.8 hPa Calm     96 % 0 in /  0 mm
07:34 65.4 °F /  18.6 °C 64.2 °F /  17.9 °C 30.09 in /  1018.8 hPa Calm     96 % 0 in /  0 mm
07:39 65.6 °F /  18.7 °C 64.4 °F /  18 °C 30.09 in /  1018.8 hPa Calm     96 % 0 in /  0 mm
07:44 65.9 °F /  18.8 °C 64.4 °F /  18 °C 30.09 in /  1018.8 hPa Calm     95 % 0 in /  0 mm
07:49 66.2 °F /  19 °C 64.7 °F /  18.2 °C 30.09 in /  1018.8 hPa East 0.1 mph /  0.2 km/h 1 mph /  1.6 km/h 95 % 0 in /  0 mm
07:54 66.5 °F /  19.2 °C 64.7 °F /  18.2 °C 30.09 in /  1018.8 hPa Calm     94 % 0 in /  0 mm
07:59 66.8 °F /  19.3 °C 65 °F /  18.3 °C 30.09 in /  1018.8 hPa Calm     94 % 0 in /  0 mm
08:04 67 °F /  19.4 °C 64.9 °F /  18.3 °C 30.09 in /  1018.8 hPa Calm     93 % 0 in /  0 mm
08:09 67.3 °F /  19.6 °C 64.9 °F /  18.3 °C 30.09 in /  1018.8 hPa East 0.3 mph /  0.5 km/h 2 mph /  3.2 km/h 92 % 0 in /  0 mm
08:14 67.5 °F /  19.7 °C 65.1 °F /  18.4 °C 30.10 in /  1019.2 hPa Calm     92 % 0 in /  0 mm
08:19 67.7 °F /  19.8 °C 65 °F /  18.3 °C 30.09 in /  1018.8 hPa Calm     91 % 0 in /  0 mm
08:24 68 °F /  20 °C 65.3 °F /  18.5 °C 30.09 in /  1018.8 hPa Calm     91 % 0 in /  0 mm
08:29 68.2 °F /  20.1 °C 65.2 °F /  18.4 °C 30.09 in /  1018.8 hPa Calm     90 % 0 in /  0 mm
08:34 68.5 °F /  20.3 °C 65.4 °F /  18.6 °C 30.09 in /  1018.8 hPa Calm   1.2 mph /  1.9 km/h 90 % 0 in /  0 mm
08:39 68.6 °F /  20.3 °C 65.2 °F /  18.4 °C 30.09 in /  1018.8 hPa Calm     89 % 0 in /  0 mm
08:44 68.8 °F /  20.4 °C 65.4 °F /  18.6 °C 30.09 in /  1018.8 hPa Calm     89 % 0 in /  0 mm
08:49 69 °F /  20.6 °C 65 °F /  18.3 °C 30.09 in /  1018.8 hPa Calm     87 % 0 in /  0 mm
08:54 69.1 °F /  20.6 °C 65.1 °F /  18.4 °C 30.09 in /  1018.8 hPa Calm   1.2 mph /  1.9 km/h 87 % 0 in /  0 mm
08:59 69.3 °F /  20.7 °C 64.9 °F /  18.3 °C 30.09 in /  1018.8 hPa Calm     86 % 0 in /  0 mm
09:04 69.4 °F /  20.8 °C 65 °F /  18.3 °C 30.09 in /  1018.8 hPa Calm     86 % 0 in /  0 mm
09:09 69.5 °F /  20.8 °C 65.1 °F /  18.4 °C 30.09 in /  1018.8 hPa Calm     86 % 0 in /  0 mm
09:14 69.6 °F /  20.9 °C 65.2 °F /  18.4 °C 30.09 in /  1018.8 hPa Calm     86 % 0 in /  0 mm
09:19 69.6 °F /  20.9 °C 64.9 °F /  18.3 °C 30.09 in /  1018.8 hPa Calm     85 % 0 in /  0 mm
09:24 69.7 °F /  20.9 °C 65 °F /  18.3 °C 30.09 in /  1018.8 hPa Calm     85 % 0 in /  0 mm
09:29 69.8 °F /  21 °C 65.1 °F /  18.4 °C 30.09 in /  1018.8 hPa Calm     85 % 0 in /  0 mm
09:34 69.9 °F /  21.1 °C 65.2 °F /  18.4 °C 30.09 in /  1018.8 hPa Calm     85 % 0 in /  0 mm
09:39 70 °F /  21.1 °C 65.3 °F /  18.5 °C 30.09 in /  1018.8 hPa Calm     85 % 0 in /  0 mm
09:44 70.2 °F /  21.2 °C 65.5 °F /  18.6 °C 30.10 in /  1019.2 hPa Calm     85 % 0 in /  0 mm
09:49 70.4 °F /  21.3 °C 65 °F /  18.3 °C 30.10 in /  1019.2 hPa Calm     83 % 0 in /  0 mm
09:54 70.9 °F /  21.6 °C 65.8 °F /  18.8 °C 30.10 in /  1019.2 hPa Calm     84 % 0 in /  0 mm
09:59 71.3 °F /  21.8 °C 65.5 °F /  18.6 °C 30.09 in /  1018.8 hPa Calm     82 % 0 in /  0 mm
10:04 71.9 °F /  22.2 °C 65.8 °F /  18.8 °C 30.09 in /  1018.8 hPa Calm   3.5 mph /  5.6 km/h 81 % 0 in /  0 mm
10:09 72.4 °F /  22.4 °C 66.2 °F /  19 °C 30.09 in /  1018.8 hPa Calm     81 % 0 in /  0 mm
10:14 72.7 °F /  22.6 °C 66.2 °F /  19 °C 30.09 in /  1018.8 hPa Calm     80 % 0 in /  0 mm
10:19 72.8 °F /  22.7 °C 65.9 °F /  18.8 °C 30.09 in /  1018.8 hPa NE 0.7 mph /  1.1 km/h 1.2 mph /  1.9 km/h 79 % 0 in /  0 mm
10:24 72.7 °F /  22.6 °C 65.8 °F /  18.8 °C 30.09 in /  1018.8 hPa ENE 0.2 mph /  0.3 km/h 1.2 mph /  1.9 km/h 79 % 0 in /  0 mm
10:29 72.7 °F /  22.6 °C 65.4 °F /  18.6 °C 30.09 in /  1018.8 hPa NE 0.4 mph /  0.6 km/h 3.5 mph /  5.6 km/h 78 % 0 in /  0 mm
10:34 72.9 °F /  22.7 °C 66 °F /  18.9 °C 30.09 in /  1018.8 hPa Calm     79 % 0 in /  0 mm
10:39 73.1 °F /  22.8 °C 66.6 °F /  19.2 °C 30.09 in /  1018.8 hPa Calm     80 % 0 in /  0 mm
10:44 73.5 °F /  23.1 °C 66.6 °F /  19.2 °C 30.09 in /  1018.8 hPa ENE 0.4 mph /  0.6 km/h   79 % 0 in /  0 mm
10:49 73.8 °F /  23.2 °C 65.8 °F /  18.8 °C 30.09 in /  1018.8 hPa Calm   4.6 mph /  7.4 km/h 76 % 0 in /  0 mm
10:54 74.3 °F /  23.5 °C 67 °F /  19.4 °C 30.08 in /  1018.5 hPa Calm     78 % 0 in /  0 mm
10:59 74.8 °F /  23.8 °C 66.7 °F /  19.3 °C 30.08 in /  1018.5 hPa Calm     76 % 0 in /  0 mm
11:04 75.2 °F /  24 °C 66.7 °F /  19.3 °C 30.07 in /  1018.2 hPa ENE 0.6 mph /  1 km/h 3.5 mph /  5.6 km/h 75 % 0 in /  0 mm
11:09 75.7 °F /  24.3 °C 67.6 °F /  19.8 °C 30.07 in /  1018.2 hPa NE 0.3 mph /  0.5 km/h 2 mph /  3.2 km/h 76 % 0 in /  0 mm
11:14 76.1 °F /  24.5 °C 67.6 °F /  19.8 °C 30.07 in /  1018.2 hPa NE 0.2 mph /  0.3 km/h 2 mph /  3.2 km/h 75 % 0 in /  0 mm
11:19 76.5 °F /  24.7 °C 67.6 °F /  19.8 °C 30.07 in /  1018.2 hPa Calm     74 % 0 in /  0 mm
11:24 76.9 °F /  24.9 °C 68 °F /  20 °C 30.07 in /  1018.2 hPa ENE 2.6 mph /  4.2 km/h 2.3 mph /  3.7 km/h 74 % 0 in /  0 mm
11:29 77.2 °F /  25.1 °C 68.7 °F /  20.4 °C 30.07 in /  1018.2 hPa Calm     75 % 0 in /  0 mm
11:34 77.5 °F /  25.3 °C 67.8 °F /  19.9 °C 30.07 in /  1018.2 hPa ENE 1.8 mph /  2.9 km/h 3 mph /  4.8 km/h 72 % 0 in /  0 mm
11:39 77.6 °F /  25.3 °C 68.3 °F /  20.2 °C 30.07 in /  1018.2 hPa ENE 0.2 mph /  0.3 km/h 3.5 mph /  5.6 km/h 73 % 0 in /  0 mm
11:44 77.8 °F /  25.4 °C 68 °F /  20 °C 30.07 in /  1018.2 hPa ENE 0.3 mph /  0.5 km/h 4.6 mph /  7.4 km/h 72 % 0 in /  0 mm
11:49 78 °F /  25.6 °C 68.2 °F /  20.1 °C 30.07 in /  1018.2 hPa ENE 0.4 mph /  0.6 km/h 3.5 mph /  5.6 km/h 72 % 0 in /  0 mm
11:54 78.1 °F /  25.6 °C 67.9 °F /  19.9 °C 30.06 in /  1017.8 hPa ENE 0.5 mph /  0.8 km/h 3.5 mph /  5.6 km/h 71 % 0 in /  0 mm
11:59 78.4 °F /  25.8 °C 69 °F /  20.6 °C 30.06 in /  1017.8 hPa NE 0.2 mph /  0.3 km/h 3.5 mph /  5.6 km/h 73 % 0 in /  0 mm
12:04 78.6 °F /  25.9 °C 69.2 °F /  20.7 °C 30.05 in /  1017.5 hPa ENE 0.6 mph /  1 km/h 5 mph /  8 km/h 73 % 0 in /  0 mm
12:09 78.7 °F /  25.9 °C 68.5 °F /  20.3 °C 30.06 in /  1017.8 hPa ENE 0.8 mph /  1.3 km/h 3 mph /  4.8 km/h 71 % 0 in /  0 mm
12:14 78.8 °F /  26 °C 68.6 °F /  20.3 °C 30.05 in /  1017.5 hPa ENE 1.1 mph /  1.8 km/h 4.6 mph /  7.4 km/h 71 % 0 in /  0 mm
12:19 78.9 °F /  26.1 °C 68.3 °F /  20.2 °C 30.05 in /  1017.5 hPa ENE 1.5 mph /  2.4 km/h 8.1 mph /  13 km/h 70 % 0 in /  0 mm
12:24 79.1 °F /  26.2 °C 69.7 °F /  20.9 °C 30.05 in /  1017.5 hPa NE 0.3 mph /  0.5 km/h 3.5 mph /  5.6 km/h 73 % 0 in /  0 mm
12:29 79.1 °F /  26.2 °C 68.5 °F /  20.3 °C 30.05 in /  1017.5 hPa ENE 2.1 mph /  3.4 km/h 5 mph /  8 km/h 70 % 0 in /  0 mm
12:34 79.1 °F /  26.2 °C 69.7 °F /  20.9 °C 30.05 in /  1017.5 hPa ENE 2.1 mph /  3.4 km/h 4 mph /  6.4 km/h 73 % 0 in /  0 mm
12:39 79.2 °F /  26.2 °C 70.2 °F /  21.2 °C 30.05 in /  1017.5 hPa Calm     74 % 0 in /  0 mm
12:44 79.3 °F /  26.3 °C 68.7 °F /  20.4 °C 30.05 in /  1017.5 hPa NE 0.7 mph /  1.1 km/h 5.8 mph /  9.3 km/h 70 % 0 in /  0 mm
12:49 79.4 °F /  26.3 °C 70 °F /  21.1 °C 30.04 in /  1017.2 hPa ENE 0.6 mph /  1 km/h 5.8 mph /  9.3 km/h 73 % 0 in /  0 mm
12:54 79.4 °F /  26.3 °C 69.2 °F /  20.7 °C 30.04 in /  1017.2 hPa ENE 2.2 mph /  3.5 km/h 4.6 mph /  7.4 km/h 71 % 0 in /  0 mm
12:59 79.5 °F /  26.4 °C 69.7 °F /  20.9 °C 30.04 in /  1017.2 hPa ENE 0.6 mph /  1 km/h 5.8 mph /  9.3 km/h 72 % 0 in /  0 mm
13:04 79.6 °F /  26.4 °C 69.4 °F /  20.8 °C 30.04 in /  1017.2 hPa East 2.4 mph /  3.9 km/h 6.9 mph /  11.1 km/h 71 % 0 in /  0 mm
13:09 79.5 °F /  26.4 °C 69.3 °F /  20.7 °C 30.04 in /  1017.2 hPa ENE 1.8 mph /  2.9 km/h 8.1 mph /  13 km/h 71 % 0 in /  0 mm
13:14 79.6 °F /  26.4 °C 69.8 °F /  21 °C 30.04 in /  1017.2 hPa ENE 1.8 mph /  2.9 km/h 2 mph /  3.2 km/h 72 % 0 in /  0 mm
13:19 79.3 °F /  26.3 °C 68.7 °F /  20.4 °C 30.04 in /  1017.2 hPa NNE 0.6 mph /  1 km/h 11.5 mph /  18.5 km/h 70 % 0 in /  0 mm
13:24 79.1 °F /  26.2 °C 69.3 °F /  20.7 °C 30.04 in /  1017.2 hPa ENE 0.8 mph /  1.3 km/h 5.8 mph /  9.3 km/h 72 % 0 in /  0 mm
13:29 79.2 °F /  26.2 °C 69 °F /  20.6 °C 30.03 in /  1016.8 hPa ENE 3 mph /  4.8 km/h 9.2 mph /  14.8 km/h 71 % 0 in /  0 mm
13:34 79.1 °F /  26.2 °C 70.1 °F /  21.2 °C 30.03 in /  1016.8 hPa ENE 2 mph /  3.2 km/h 4.6 mph /  7.4 km/h 74 % 0 in /  0 mm
13:39 78.9 °F /  26.1 °C 69.5 °F /  20.8 °C 30.03 in /  1016.8 hPa ENE 1.1 mph /  1.8 km/h 3.5 mph /  5.6 km/h 73 % 0 in /  0 mm
13:44 78.8 °F /  26 °C 69.4 °F /  20.8 °C 30.03 in /  1016.8 hPa NE 1.2 mph /  1.9 km/h 5 mph /  8 km/h 73 % 0 in /  0 mm
13:49 78.7 °F /  25.9 °C 69.3 °F /  20.7 °C 30.02 in /  1016.5 hPa East 1.3 mph /  2.1 km/h 4.6 mph /  7.4 km/h 73 % 0 in /  0 mm
13:54 78.6 °F /  25.9 °C 69.2 °F /  20.7 °C 30.02 in /  1016.5 hPa ENE 2.7 mph /  4.3 km/h 5 mph /  8 km/h 73 % 0 in /  0 mm
13:59 78.7 °F /  25.9 °C 70.1 °F /  21.2 °C 30.02 in /  1016.5 hPa ENE 0.6 mph /  1 km/h 2.3 mph /  3.7 km/h 75 % 0 in /  0 mm
14:04 79 °F /  26.1 °C 70 °F /  21.1 °C 30.02 in /  1016.5 hPa ENE 0.1 mph /  0.2 km/h 4 mph /  6.4 km/h 74 % 0 in /  0 mm
14:09 79.2 °F /  26.2 °C 69.4 °F /  20.8 °C 30.01 in /  1016.1 hPa NE 0.5 mph /  0.8 km/h 2.3 mph /  3.7 km/h 72 % 0 in /  0 mm
14:14 79.2 °F /  26.2 °C 70.2 °F /  21.2 °C 30.01 in /  1016.1 hPa ENE 0.2 mph /  0.3 km/h 1.2 mph /  1.9 km/h 74 % 0 in /  0 mm
14:19 79.3 °F /  26.3 °C 70.3 °F /  21.3 °C 30.01 in /  1016.1 hPa ENE 0.4 mph /  0.6 km/h 2 mph /  3.2 km/h 74 % 0 in /  0 mm
14:24 79.3 °F /  26.3 °C 69.9 °F /  21.1 °C 30.01 in /  1016.1 hPa Calm     73 % 0 in /  0 mm
14:29 79.4 °F /  26.3 °C 70 °F /  21.1 °C 30.01 in /  1016.1 hPa ENE 0.7 mph /  1.1 km/h 2.3 mph /  3.7 km/h 73 % 0 in /  0 mm
Crab Meadow Weather
Compliments of Weather Underground - 2.25 mb

Script developed by  Jim McMurry - jmcmurry@mwt.net Adapted for the template by  Wim van der Kuil - Leuven-Template.eu

Weather Terms: Hail - Precipitation in the form of lumps of ice that form during some thunderstorms.